createdAt,value
2022-08-09T00:00:04.290Z,40.90
2022-08-09T00:02:33.468Z,40.30
2022-08-09T00:05:03.142Z,40.20
2022-08-09T00:07:47.086Z,40.90
2022-08-09T00:10:18.227Z,40.40
2022-08-09T00:12:51.514Z,40.40
2022-08-09T00:15:20.166Z,40.50
2022-08-09T00:18:06.134Z,40.70
2022-08-09T00:20:37.720Z,40.70
2022-08-09T00:23:53.923Z,40.70
2022-08-09T00:25:55.804Z,40.80
2022-08-09T00:28:23.507Z,40.80
2022-08-09T00:30:53.995Z,40.80
2022-08-09T00:33:20.676Z,41.00
2022-08-09T00:36:07.622Z,41.00
2022-08-09T00:38:35.418Z,41.00
2022-08-09T00:41:03.313Z,41.00
2022-08-09T00:44:10.023Z,41.00
2022-08-09T00:46:56.263Z,41.00
2022-08-09T00:49:10.755Z,41.00
2022-08-09T00:51:42.707Z,41.00
2022-08-09T00:54:23.436Z,41.00
2022-08-09T00:57:01.742Z,40.90
2022-08-09T00:59:40.646Z,41.00
2022-08-09T01:02:08.692Z,41.20
2022-08-09T01:04:38.252Z,41.40
2022-08-09T01:07:37.779Z,41.10
2022-08-09T01:10:25.904Z,40.80
2022-08-09T01:12:56.740Z,40.60
2022-08-09T01:15:24.579Z,40.00
2022-08-09T01:17:51.989Z,40.00
2022-08-09T01:20:27.570Z,40.00
2022-08-09T01:24:00.515Z,40.20
2022-08-09T01:26:08.375Z,40.90
2022-08-09T01:28:35.070Z,40.50
2022-08-09T01:31:01.753Z,40.50
2022-08-09T01:33:34.489Z,40.50
2022-08-09T01:36:03.501Z,40.60
2022-08-09T01:38:31.221Z,40.70
2022-08-09T01:41:12.745Z,40.80
2022-08-09T01:43:50.782Z,40.80
2022-08-09T01:46:25.109Z,40.90
2022-08-09T01:48:59.871Z,40.80
2022-08-09T01:51:27.249Z,40.80
2022-08-09T01:53:59.083Z,40.90
2022-08-09T01:56:26.435Z,40.90
2022-08-09T01:58:53.167Z,41.00
2022-08-09T02:01:20.175Z,41.00
2022-08-09T02:03:57.414Z,41.00
2022-08-09T02:06:45.500Z,41.00
2022-08-09T02:09:21.180Z,40.90
2022-08-09T02:11:48.577Z,40.90
2022-08-09T02:14:26.578Z,41.20
2022-08-09T02:17:14.585Z,41.40
2022-08-09T02:19:43.489Z,41.10
2022-08-09T02:22:34.897Z,40.80
2022-08-09T02:25:03.289Z,40.50
2022-08-09T02:27:57.892Z,39.90
2022-08-09T02:30:20.147Z,39.90
2022-08-09T02:32:47.193Z,40.60
2022-08-09T02:36:01.108Z,40.10
2022-08-09T02:38:11.316Z,40.00
2022-08-09T02:40:48.685Z,40.80
2022-08-09T02:43:16.735Z,40.20
2022-08-09T02:45:47.958Z,40.20
2022-08-09T02:48:19.470Z,40.40
2022-08-09T02:50:57.319Z,40.30
2022-08-09T02:53:26.222Z,40.30
2022-08-09T02:55:58.386Z,40.30
2022-08-09T02:58:36.082Z,40.30
2022-08-09T03:01:06.110Z,40.30
2022-08-09T03:03:37.267Z,40.30
2022-08-09T03:06:21.725Z,40.30
2022-08-09T03:08:48.473Z,40.30
2022-08-09T03:12:04.682Z,40.40
2022-08-09T03:14:03.375Z,40.40
2022-08-09T03:16:30.047Z,40.50
2022-08-09T03:18:56.724Z,40.50
2022-08-09T03:21:28.463Z,40.50
2022-08-09T03:24:04.458Z,40.50
2022-08-09T03:26:32.062Z,40.50
2022-08-09T03:28:59.373Z,41.20
2022-08-09T03:31:26.340Z,40.00
2022-08-09T03:33:54.855Z,40.00
2022-08-09T03:36:27.502Z,40.40
2022-08-09T03:38:54.714Z,40.90
2022-08-09T03:41:29.866Z,41.40
2022-08-09T03:44:09.804Z,41.80
2022-08-09T03:46:39.142Z,42.30
2022-08-09T03:49:09.055Z,42.80
2022-08-09T03:51:43.795Z,43.20
2022-08-09T03:54:29.171Z,43.60
2022-08-09T03:56:57.984Z,43.80
2022-08-09T03:59:27.205Z,44.20
2022-08-09T04:02:10.135Z,44.40
2022-08-09T04:04:38.967Z,44.50
2022-08-09T04:07:05.801Z,44.80
2022-08-09T04:09:48.250Z,44.90
2022-08-09T04:12:30.503Z,45.10
2022-08-09T04:15:11.585Z,45.00
2022-08-09T04:17:44.129Z,45.00
2022-08-09T04:20:11.496Z,45.30
2022-08-09T04:22:41.150Z,45.40
2022-08-09T04:25:11.042Z,45.50
2022-08-09T04:27:41.615Z,45.60
2022-08-09T04:30:12.356Z,46.20
2022-08-09T04:32:39.708Z,45.40
2022-08-09T04:35:13.679Z,45.50
2022-08-09T04:37:45.360Z,45.40
2022-08-09T04:40:19.185Z,45.50
2022-08-09T04:42:55.703Z,45.40
2022-08-09T04:45:23.788Z,45.50
2022-08-09T04:48:01.048Z,45.40
2022-08-09T04:50:33.580Z,45.50
2022-08-09T04:53:02.098Z,45.60
2022-08-09T04:55:37.913Z,45.70
2022-08-09T04:58:15.652Z,46.10
2022-08-09T05:00:43.161Z,45.60
2022-08-09T05:03:30.530Z,45.90
2022-08-09T05:06:06.721Z,46.10
2022-08-09T05:08:34.925Z,45.90
2022-08-09T05:11:02.623Z,45.80
2022-08-09T05:13:29.447Z,45.10
2022-08-09T05:16:00.129Z,45.20
2022-08-09T05:18:38.986Z,44.80
2022-08-09T05:21:23.056Z,44.50
2022-08-09T05:24:00.693Z,44.20
2022-08-09T05:26:36.378Z,43.80
2022-08-09T05:29:04.311Z,43.70
2022-08-09T05:31:47.396Z,43.40
2022-08-09T05:34:17.577Z,43.30
2022-08-09T05:36:46.870Z,43.20
2022-08-09T05:39:28.322Z,43.20
2022-08-09T05:41:56.106Z,43.00
2022-08-09T05:44:29.096Z,43.00
2022-08-09T05:46:59.909Z,43.00
2022-08-09T05:50:23.375Z,42.90
2022-08-09T05:52:13.418Z,43.00
2022-08-09T05:54:40.343Z,43.00
2022-08-09T05:57:07.713Z,43.00
2022-08-09T05:59:39.622Z,43.00
2022-08-09T06:02:09.145Z,43.00
2022-08-09T06:04:36.888Z,43.00
2022-08-09T06:07:11.605Z,43.00
2022-08-09T06:10:01.338Z,43.00
2022-08-09T06:12:29.373Z,43.00
2022-08-09T06:15:00.934Z,42.90
2022-08-09T06:17:40.030Z,43.10
2022-08-09T06:20:07.948Z,43.10
2022-08-09T06:22:35.035Z,43.00
2022-08-09T06:25:02.034Z,43.10
2022-08-09T06:27:42.239Z,42.90
2022-08-09T06:30:10.425Z,42.80
2022-08-09T06:33:13.219Z,42.70
2022-08-09T06:35:56.353Z,42.40
2022-08-09T06:38:15.792Z,42.20
2022-08-09T06:40:43.183Z,41.90
2022-08-09T06:43:10.494Z,41.70
2022-08-09T06:46:05.284Z,41.50
2022-08-09T06:48:30.677Z,41.60
2022-08-09T06:50:58.576Z,41.60
2022-08-09T06:53:25.254Z,41.80
2022-08-09T06:55:52.710Z,42.00
2022-08-09T06:58:40.806Z,42.00
2022-08-09T07:01:06.407Z,42.20
2022-08-09T07:03:39.802Z,42.20
2022-08-09T07:06:20.027Z,42.40
2022-08-09T07:08:49.614Z,42.50
2022-08-09T07:11:17.734Z,42.50
2022-08-09T07:14:05.584Z,42.50
2022-08-09T07:16:42.129Z,42.50
2022-08-09T07:19:23.074Z,42.50
2022-08-09T07:21:55.923Z,42.50
2022-08-09T07:24:32.214Z,42.50
2022-08-09T07:27:10.798Z,42.50
2022-08-09T07:29:57.080Z,42.50
2022-08-09T07:32:24.150Z,42.50
2022-08-09T07:35:02.764Z,42.50
2022-08-09T07:37:42.943Z,42.50
2022-08-09T07:40:16.621Z,42.70
2022-08-09T07:42:51.615Z,42.80
2022-08-09T07:45:40.361Z,42.80
2022-08-09T07:48:25.888Z,42.70
2022-08-09T07:51:03.166Z,42.60
2022-08-09T07:54:06.725Z,42.20
2022-08-09T07:56:33.244Z,41.90
2022-08-09T07:59:00.004Z,41.80
2022-08-09T08:01:33.090Z,41.80
2022-08-09T08:04:02.219Z,42.00
2022-08-09T08:06:31.838Z,42.20
2022-08-09T08:09:03.386Z,42.30
2022-08-09T08:12:24.793Z,42.30
2022-08-09T08:14:17.806Z,42.50
2022-08-09T08:16:51.178Z,42.70
2022-08-09T08:19:31.544Z,42.70
2022-08-09T08:21:58.380Z,42.80
2022-08-09T08:24:32.158Z,42.80
2022-08-09T08:27:16.326Z,42.70
2022-08-09T08:29:48.819Z,42.70
2022-08-09T08:32:24.409Z,42.80
2022-08-09T08:34:58.923Z,42.80
2022-08-09T08:37:26.492Z,42.80
2022-08-09T08:40:09.248Z,42.80
2022-08-09T08:42:37.626Z,42.90
2022-08-09T08:45:13.503Z,43.10
2022-08-09T08:47:42.857Z,43.10
2022-08-09T08:50:13.793Z,43.10
2022-08-09T08:52:57.864Z,43.20
2022-08-09T08:55:26.654Z,43.20
2022-08-09T08:57:56.930Z,42.90
2022-08-09T09:00:27.963Z,43.00
2022-08-09T09:03:00.424Z,42.50
2022-08-09T09:05:57.852Z,42.30
2022-08-09T09:08:30.459Z,42.10
2022-08-09T09:11:03.131Z,42.10
2022-08-09T09:13:55.275Z,42.30
2022-08-09T09:16:30.557Z,42.30
2022-08-09T09:19:22.656Z,42.50
2022-08-09T09:22:05.519Z,42.60
2022-08-09T09:24:37.852Z,42.80
2022-08-09T09:27:05.308Z,43.00
2022-08-09T09:30:08.527Z,43.00
2022-08-09T09:32:34.397Z,43.00
2022-08-09T09:35:02.280Z,43.00
2022-08-09T09:37:31.855Z,43.10
2022-08-09T09:39:59.653Z,43.40
2022-08-09T09:42:32.419Z,43.40
2022-08-09T09:45:00.465Z,43.40
2022-08-09T09:47:28.599Z,43.40
2022-08-09T09:50:13.621Z,43.50
2022-08-09T09:52:54.622Z,43.50
2022-08-09T09:55:32.040Z,43.50
2022-08-09T09:58:16.189Z,43.50
2022-08-09T10:00:55.482Z,43.40
2022-08-09T10:03:44.604Z,43.10
2022-08-09T10:06:22.858Z,43.10
2022-08-09T10:08:57.354Z,42.70
2022-08-09T10:12:00.779Z,42.30
2022-08-09T10:14:30.738Z,42.20
2022-08-09T10:17:11.510Z,42.30
2022-08-09T10:19:46.489Z,42.50
2022-08-09T10:22:13.206Z,42.60
2022-08-09T10:24:39.918Z,42.60
2022-08-09T10:27:17.023Z,42.80
2022-08-09T10:30:28.421Z,42.80
2022-08-09T10:32:50.257Z,43.10
2022-08-09T10:35:17.283Z,43.10
2022-08-09T10:37:47.164Z,43.10
2022-08-09T10:40:33.467Z,43.10
2022-08-09T10:43:01.946Z,43.10
2022-08-09T10:45:31.948Z,43.10
2022-08-09T10:48:14.488Z,43.10
2022-08-09T10:51:06.666Z,43.30
2022-08-09T10:53:54.559Z,43.20
2022-08-09T10:56:40.603Z,43.10
2022-08-09T10:59:23.171Z,42.80
2022-08-09T11:03:15.769Z,42.50
2022-08-09T11:04:37.884Z,42.30
2022-08-09T11:07:22.542Z,42.30
2022-08-09T11:09:49.465Z,42.40
2022-08-09T11:12:20.223Z,42.60
2022-08-09T11:14:48.908Z,42.80
2022-08-09T11:17:15.918Z,42.90
2022-08-09T11:20:11.927Z,43.10
2022-08-09T11:22:45.924Z,43.30
2022-08-09T11:25:19.541Z,43.30
2022-08-09T11:28:07.910Z,43.60
2022-08-09T11:30:39.849Z,43.30
2022-08-09T11:33:17.938Z,43.40
2022-08-09T11:35:49.210Z,43.40
2022-08-09T11:38:17.656Z,43.50
2022-08-09T11:40:45.147Z,43.60
2022-08-09T11:43:26.836Z,43.60
2022-08-09T11:45:59.773Z,43.40
2022-08-09T11:48:28.301Z,43.10
2022-08-09T11:52:54.012Z,42.80
2022-08-09T11:54:01.435Z,42.50
2022-08-09T11:56:41.649Z,42.50
2022-08-09T11:59:11.673Z,42.70
2022-08-09T12:02:16.904Z,42.80
2022-08-09T12:04:32.543Z,43.00
2022-08-09T12:07:04.321Z,43.70
2022-08-09T12:09:35.502Z,43.40
2022-08-09T12:12:05.998Z,43.40
2022-08-09T12:15:04.143Z,43.40
2022-08-09T12:17:28.030Z,43.30
2022-08-09T12:20:21.923Z,43.30
2022-08-09T12:22:50.544Z,43.70
2022-08-09T12:25:17.871Z,43.60
2022-08-09T12:29:10.176Z,43.80
2022-08-09T12:30:57.794Z,43.70
2022-08-09T12:33:26.367Z,43.50
2022-08-09T12:36:05.483Z,43.20
2022-08-09T12:38:52.770Z,42.90
2022-08-09T12:41:29.436Z,42.50
2022-08-09T12:44:06.391Z,42.60
2022-08-09T12:46:34.426Z,42.70
2022-08-09T12:49:03.203Z,42.90
2022-08-09T12:51:30.363Z,43.10
2022-08-09T12:54:16.618Z,43.10
2022-08-09T12:56:51.240Z,43.50
2022-08-09T12:59:21.242Z,43.50
2022-08-09T13:01:49.967Z,43.50
2022-08-09T13:04:36.808Z,43.50
2022-08-09T13:07:13.445Z,43.50
2022-08-09T13:09:40.962Z,43.90
2022-08-09T13:12:11.351Z,43.80
2022-08-09T13:14:45.366Z,43.90
2022-08-09T13:17:21.745Z,44.00
2022-08-09T13:20:14.373Z,43.70
2022-08-09T13:23:01.422Z,44.20
2022-08-09T13:25:42.943Z,43.30
2022-08-09T13:28:33.669Z,43.00
2022-08-09T13:32:17.961Z,43.60
2022-08-09T13:33:53.826Z,43.20
2022-08-09T13:36:39.553Z,43.20
2022-08-09T13:41:19.534Z,43.50
2022-08-09T13:42:12.359Z,43.50
2022-08-09T13:44:40.058Z,44.10
2022-08-09T13:47:27.325Z,43.80
2022-08-09T13:50:12.547Z,44.00
2022-08-09T13:52:44.841Z,44.10
2022-08-09T13:55:14.448Z,44.00
2022-08-09T13:57:56.148Z,44.20
2022-08-09T14:00:28.323Z,44.20
2022-08-09T14:03:58.152Z,44.10
2022-08-09T14:05:58.949Z,43.50
2022-08-09T14:08:28.649Z,43.60
2022-08-09T14:10:56.695Z,43.10
2022-08-09T14:14:15.379Z,43.30
2022-08-09T14:16:13.710Z,43.30
2022-08-09T14:18:43.385Z,43.20
2022-08-09T14:21:17.598Z,43.40
2022-08-09T14:23:55.108Z,43.60
2022-08-09T14:26:31.483Z,43.70
2022-08-09T14:29:03.258Z,43.90
2022-08-09T14:31:49.891Z,44.40
2022-08-09T14:34:17.725Z,44.80
2022-08-09T14:36:55.192Z,44.90
2022-08-09T14:39:21.998Z,44.90
2022-08-09T14:42:08.735Z,45.40
2022-08-09T14:44:48.531Z,44.90
2022-08-09T14:47:39.970Z,44.80
2022-08-09T14:50:02.944Z,44.70
2022-08-09T14:52:29.652Z,44.30
2022-08-09T14:54:56.392Z,43.80
2022-08-09T14:57:31.894Z,43.80
2022-08-09T15:00:10.518Z,43.40
2022-08-09T15:02:37.572Z,43.50
2022-08-09T15:05:07.095Z,43.80
2022-08-09T15:07:35.416Z,43.80
2022-08-09T15:10:10.295Z,43.80
2022-08-09T15:12:38.117Z,43.80
2022-08-09T15:15:08.555Z,44.20
2022-08-09T15:17:42.155Z,44.20
2022-08-09T15:20:15.276Z,44.40
2022-08-09T15:23:55.753Z,45.10
2022-08-09T15:25:46.547Z,44.60
2022-08-09T15:28:28.002Z,44.70
2022-08-09T15:31:09.894Z,45.30
2022-08-09T15:34:31.402Z,44.80
2022-08-09T15:36:30.098Z,44.50
2022-08-09T15:39:00.171Z,44.20
2022-08-09T15:41:31.811Z,43.80
2022-08-09T15:44:02.394Z,43.70
2022-08-09T15:46:33.021Z,43.50
2022-08-09T15:49:22.875Z,43.60
2022-08-09T15:52:04.418Z,43.80
2022-08-09T15:54:49.006Z,43.80
2022-08-09T15:57:34.066Z,44.00
2022-08-09T16:00:14.754Z,44.20
2022-08-09T16:02:53.779Z,44.40
2022-08-09T16:05:26.576Z,44.50
2022-08-09T16:08:24.757Z,44.50
2022-08-09T16:11:02.181Z,45.40
2022-08-09T16:14:05.424Z,44.80
2022-08-09T16:16:18.748Z,44.90
2022-08-09T16:18:50.464Z,44.80
2022-08-09T16:21:26.094Z,44.80
2022-08-09T16:24:02.033Z,44.60
2022-08-09T16:26:35.528Z,44.20
2022-08-09T16:29:15.721Z,43.80
2022-08-09T16:32:19.749Z,43.60
2022-08-09T16:34:55.759Z,43.20
2022-08-09T16:37:54.497Z,43.60
2022-08-09T16:40:08.430Z,43.80
2022-08-09T16:42:35.517Z,43.80
2022-08-09T16:45:02.475Z,43.80
2022-08-09T16:48:40.829Z,43.70
2022-08-09T16:50:31.123Z,44.10
2022-08-09T16:52:59.960Z,44.20
2022-08-09T16:55:26.702Z,44.90
2022-08-09T16:58:10.217Z,44.30
2022-08-09T17:00:42.759Z,44.30
2022-08-09T17:03:20.835Z,44.40
2022-08-09T17:06:03.478Z,44.60
2022-08-09T17:08:43.876Z,44.50
2022-08-09T17:11:24.348Z,44.10
2022-08-09T17:14:01.414Z,43.80
2022-08-09T17:16:28.867Z,43.60
2022-08-09T17:18:55.563Z,43.30
2022-08-09T17:21:25.041Z,43.10
2022-08-09T17:24:20.754Z,43.50
2022-08-09T17:26:42.690Z,43.80
2022-08-09T17:29:20.377Z,43.80
2022-08-09T17:31:49.276Z,44.70
2022-08-09T17:35:01.647Z,45.00
2022-08-09T17:37:03.206Z,45.00
2022-08-09T17:39:52.821Z,44.90
2022-08-09T17:42:55.387Z,44.80
2022-08-09T17:45:16.067Z,44.80
2022-08-09T17:47:55.724Z,44.60
2022-08-09T17:50:36.726Z,44.70
2022-08-09T17:53:19.453Z,45.00
2022-08-09T17:55:51.948Z,43.80
2022-08-09T17:58:22.067Z,43.80
2022-08-09T18:00:55.050Z,43.50
2022-08-09T18:03:24.256Z,43.30
2022-08-09T18:05:52.915Z,43.40
2022-08-09T18:08:22.203Z,43.70
2022-08-09T18:11:01.870Z,43.70
2022-08-09T18:13:43.408Z,43.90
2022-08-09T18:16:16.566Z,43.80
2022-08-09T18:18:49.066Z,43.80
2022-08-09T18:21:23.337Z,43.80
2022-08-09T18:24:11.324Z,43.80
2022-08-09T18:26:38.214Z,44.40
2022-08-09T18:30:38.263Z,43.70
2022-08-09T18:32:00.705Z,43.80
2022-08-09T18:34:31.564Z,44.00
2022-08-09T18:36:58.547Z,43.80
2022-08-09T18:39:32.288Z,43.80
2022-08-09T18:42:01.267Z,43.40
2022-08-09T18:44:28.757Z,43.20
2022-08-09T18:47:07.857Z,42.90
2022-08-09T18:49:43.478Z,42.90
2022-08-09T18:52:13.885Z,43.20
2022-08-09T18:54:42.068Z,43.30
2022-08-09T18:57:19.928Z,43.40
2022-08-09T18:59:58.837Z,43.40
2022-08-09T19:02:32.874Z,43.70
2022-08-09T19:05:04.343Z,43.70
2022-08-09T19:08:03.882Z,44.40
2022-08-09T19:10:37.756Z,43.70
2022-08-09T19:13:19.265Z,43.70
2022-08-09T19:15:56.314Z,44.30
2022-08-09T19:18:33.839Z,44.00
2022-08-09T19:21:03.553Z,43.70
2022-08-09T19:24:33.205Z,43.70
2022-08-09T19:26:19.938Z,43.70
2022-08-09T19:29:01.638Z,43.70
2022-08-09T19:31:44.344Z,43.40
2022-08-09T19:34:22.104Z,43.00
2022-08-09T19:36:53.406Z,42.80
2022-08-09T19:39:43.511Z,42.50
2022-08-09T19:42:07.299Z,42.90
2022-08-09T19:44:34.930Z,43.10
2022-08-09T19:47:01.686Z,43.10
2022-08-09T19:50:09.091Z,43.30
2022-08-09T19:52:31.820Z,43.40
2022-08-09T19:55:00.386Z,43.30
2022-08-09T19:57:28.679Z,43.40
2022-08-09T19:59:59.214Z,43.40
2022-08-09T20:04:09.656Z,43.50
2022-08-09T20:05:24.796Z,43.40
2022-08-09T20:07:58.785Z,43.40
2022-08-09T20:10:36.579Z,43.40
2022-08-09T20:13:04.946Z,43.60
2022-08-09T20:16:35.316Z,42.90
2022-08-09T20:18:19.716Z,41.60
2022-08-09T20:20:46.877Z,42.00
2022-08-09T20:23:13.564Z,41.70
2022-08-09T20:25:49.531Z,41.20
2022-08-09T20:28:27.494Z,40.60
2022-08-09T20:30:55.125Z,39.60
2022-08-09T20:33:22.002Z,38.80
2022-08-09T20:35:51.717Z,38.80
2022-08-09T20:38:30.458Z,39.30
2022-08-09T20:41:06.097Z,39.40
2022-08-09T20:43:32.900Z,39.40
2022-08-09T20:46:42.309Z,39.30
2022-08-09T20:48:48.247Z,39.20
2022-08-09T20:51:19.480Z,39.20
2022-08-09T20:53:46.498Z,39.30
2022-08-09T20:56:20.347Z,39.30
2022-08-09T20:58:47.366Z,39.40
2022-08-09T21:01:35.287Z,39.30
2022-08-09T21:05:48.823Z,39.30
2022-08-09T21:06:50.951Z,39.20
2022-08-09T21:09:24.779Z,39.20
2022-08-09T21:14:34.726Z,40.30
2022-08-09T21:17:02.640Z,40.30
2022-08-09T21:20:18.783Z,40.00
2022-08-09T21:22:41.208Z,39.60
2022-08-09T21:25:27.079Z,38.80
2022-08-09T21:28:05.277Z,38.90
2022-08-09T21:30:34.541Z,39.20
2022-08-09T21:33:07.079Z,39.40
2022-08-09T21:35:40.671Z,39.40
2022-08-09T21:38:11.126Z,39.50
2022-08-09T21:40:39.169Z,39.70
2022-08-09T21:43:07.989Z,39.70
2022-08-09T21:45:38.842Z,39.90
2022-08-09T21:48:06.783Z,40.00
2022-08-09T21:50:38.401Z,40.10
2022-08-09T21:53:06.604Z,40.10
2022-08-09T21:55:46.535Z,40.20
2022-08-09T21:58:13.576Z,40.10
2022-08-09T22:00:40.948Z,40.30
2022-08-09T22:03:19.291Z,40.30
2022-08-09T22:05:52.176Z,40.20
2022-08-09T22:08:19.017Z,40.30
2022-08-09T22:11:50.465Z,40.90
2022-08-09T22:13:36.850Z,40.70
2022-08-09T22:16:04.781Z,40.20
2022-08-09T22:18:34.879Z,39.80
2022-08-09T22:21:01.672Z,39.40
2022-08-09T22:23:35.389Z,39.60
2022-08-09T22:26:08.246Z,39.60
2022-08-09T22:28:47.368Z,39.70
2022-08-09T22:31:21.086Z,39.80
2022-08-09T22:33:49.092Z,39.80
2022-08-09T22:36:22.296Z,40.00
2022-08-09T22:38:49.077Z,40.00
2022-08-09T22:41:16.089Z,40.10
2022-08-09T22:44:01.944Z,40.20
2022-08-09T22:48:11.234Z,40.30
2022-08-09T22:49:16.724Z,40.40
2022-08-09T22:51:49.408Z,40.40
2022-08-09T22:54:23.519Z,40.40
2022-08-09T22:56:56.550Z,40.50
2022-08-09T22:59:57.879Z,40.60
2022-08-09T23:02:10.802Z,40.80
2022-08-09T23:04:42.476Z,41.70
2022-08-09T23:08:23.128Z,40.90
2022-08-09T23:10:17.481Z,40.80
2022-08-09T23:12:44.219Z,40.20
2022-08-09T23:15:10.926Z,40.20
2022-08-09T23:17:37.671Z,40.20
2022-08-09T23:20:08.008Z,40.20
2022-08-09T23:22:35.735Z,40.10
2022-08-09T23:25:03.809Z,40.20
2022-08-09T23:27:30.512Z,40.50
2022-08-09T23:29:57.235Z,40.30
2022-08-09T23:32:23.916Z,40.20
2022-08-09T23:34:50.606Z,40.30
2022-08-09T23:37:20.545Z,40.40
2022-08-09T23:39:49.613Z,40.50
2022-08-09T23:42:16.397Z,40.60
2022-08-09T23:44:43.065Z,40.60
2022-08-09T23:47:09.767Z,40.70
2022-08-09T23:49:36.474Z,40.80
2022-08-09T23:52:03.305Z,40.80
2022-08-09T23:54:30.109Z,40.80
2022-08-09T23:56:58.400Z,40.80
2022-08-09T23:59:25.310Z,41.30
